createdAt,value
2018-12-24T00:00:53.131Z,4.74
2018-12-24T00:03:22.420Z,4.72
2018-12-24T00:05:51.681Z,4.74
2018-12-24T00:08:21.045Z,4.75
2018-12-24T00:10:50.327Z,4.75
2018-12-24T00:13:19.615Z,4.76
2018-12-24T00:15:48.938Z,4.78
2018-12-24T00:18:18.264Z,4.77
2018-12-24T00:20:47.491Z,4.75
2018-12-24T00:23:16.756Z,4.78
2018-12-24T00:25:46.049Z,4.81
2018-12-24T00:28:15.333Z,4.80
2018-12-24T00:30:44.600Z,4.81
2018-12-24T00:33:13.851Z,4.79
2018-12-24T00:35:43.097Z,4.75
2018-12-24T00:38:12.468Z,4.75
2018-12-24T00:40:41.735Z,4.74
2018-12-24T00:43:11.006Z,4.73
2018-12-24T00:45:40.238Z,4.72
2018-12-24T00:48:09.730Z,4.75
2018-12-24T00:50:38.738Z,4.76
2018-12-24T00:53:08.005Z,4.79
2018-12-24T00:55:37.452Z,4.74
2018-12-24T00:58:06.705Z,4.78
2018-12-24T01:00:36.083Z,4.80
2018-12-24T01:03:05.331Z,4.83
2018-12-24T01:05:34.600Z,4.83
2018-12-24T01:08:03.949Z,4.87
2018-12-24T01:10:33.263Z,4.88
2018-12-24T01:13:02.649Z,4.90
2018-12-24T01:15:31.973Z,4.91
2018-12-24T01:18:01.514Z,4.96
2018-12-24T01:20:30.799Z,4.97
2018-12-24T01:23:00.337Z,4.97
2018-12-24T01:25:29.860Z,4.94
2018-12-24T01:27:59.343Z,4.97
2018-12-24T01:30:28.699Z,4.94
2018-12-24T01:32:57.929Z,4.98
2018-12-24T01:35:27.221Z,4.95
2018-12-24T01:37:56.457Z,5.02
2018-12-24T01:40:25.727Z,5.03
2018-12-24T01:42:55.099Z,4.98
2018-12-24T01:45:24.393Z,4.99
2018-12-24T01:47:53.805Z,5.01
2018-12-24T01:50:23.126Z,5.00
2018-12-24T01:52:52.344Z,4.96
2018-12-24T01:55:21.651Z,4.95
2018-12-24T01:57:50.917Z,4.94
2018-12-24T02:00:20.148Z,4.93
2018-12-24T02:02:49.537Z,4.95
2018-12-24T02:05:18.801Z,4.98
2018-12-24T02:07:48.123Z,4.98
2018-12-24T02:10:17.397Z,5.02
2018-12-24T02:12:46.650Z,4.98
2018-12-24T02:15:16.113Z,4.93
2018-12-24T02:17:45.416Z,4.97
2018-12-24T02:20:14.715Z,4.99
2018-12-24T02:22:43.961Z,4.95
2018-12-24T02:25:13.325Z,4.94
2018-12-24T02:27:42.615Z,4.91
2018-12-24T02:30:11.851Z,4.93
2018-12-24T02:32:41.106Z,4.90
2018-12-24T02:35:10.375Z,4.90
2018-12-24T02:37:39.597Z,4.87
2018-12-24T02:40:08.922Z,4.84
2018-12-24T02:42:38.208Z,4.86
2018-12-24T02:45:07.521Z,4.79
2018-12-24T02:47:36.761Z,4.80
2018-12-24T02:50:06.029Z,4.85
2018-12-24T02:52:35.296Z,4.80
2018-12-24T02:55:04.554Z,4.82
2018-12-24T02:57:33.790Z,4.84
2018-12-24T03:00:03.021Z,4.80
2018-12-24T03:02:32.266Z,4.79
2018-12-24T03:05:01.508Z,4.81
2018-12-24T03:07:30.824Z,4.76
2018-12-24T03:10:00.269Z,4.82
2018-12-24T03:12:29.413Z,4.79
2018-12-24T03:14:58.825Z,4.81
2018-12-24T03:17:28.226Z,4.79
2018-12-24T03:19:57.713Z,4.75
2018-12-24T03:22:27.122Z,4.74
2018-12-24T03:24:56.468Z,4.72
2018-12-24T03:27:25.653Z,4.72
2018-12-24T03:29:54.943Z,4.69
2018-12-24T03:32:24.219Z,4.59
2018-12-24T03:34:53.535Z,4.63
2018-12-24T03:37:22.797Z,4.62
2018-12-24T03:39:52.035Z,4.58
2018-12-24T03:42:21.355Z,4.52
2018-12-24T03:44:50.643Z,4.51
2018-12-24T03:47:19.947Z,4.47
2018-12-24T03:49:49.233Z,4.44
2018-12-24T03:52:18.503Z,4.40
2018-12-24T03:54:47.837Z,4.38
2018-12-24T03:57:17.120Z,4.33
2018-12-24T03:59:46.433Z,4.34
2018-12-24T04:02:15.730Z,4.34
2018-12-24T04:04:45.073Z,4.34
2018-12-24T04:07:14.285Z,4.38
2018-12-24T04:09:43.556Z,4.36
2018-12-24T04:12:12.788Z,4.33
2018-12-24T04:14:42.059Z,4.32
2018-12-24T04:17:11.332Z,4.35
2018-12-24T04:19:40.669Z,4.30
2018-12-24T04:22:09.939Z,4.27
2018-12-24T04:24:39.197Z,4.29
2018-12-24T04:27:08.433Z,4.26
2018-12-24T04:29:37.765Z,4.28
2018-12-24T04:32:06.992Z,4.34
2018-12-24T04:34:36.235Z,4.29
2018-12-24T04:37:05.564Z,4.33
2018-12-24T04:39:34.745Z,4.27
2018-12-24T04:42:03.981Z,4.29
2018-12-24T04:44:33.203Z,4.24
2018-12-24T04:47:02.449Z,4.24
2018-12-24T04:49:31.743Z,4.20
2018-12-24T04:52:01.059Z,4.19
2018-12-24T04:54:30.341Z,4.16
2018-12-24T04:56:59.601Z,4.16
2018-12-24T04:59:28.850Z,4.09
2018-12-24T05:01:58.130Z,4.06
2018-12-24T05:04:27.452Z,3.99
2018-12-24T05:06:56.727Z,3.96
2018-12-24T05:09:26.061Z,3.93
2018-12-24T05:11:55.303Z,3.92
2018-12-24T05:14:24.599Z,3.93
2018-12-24T05:16:53.944Z,3.91
2018-12-24T05:19:23.196Z,3.91
2018-12-24T05:21:52.453Z,3.93
2018-12-24T05:24:21.731Z,3.93
2018-12-24T05:26:51.046Z,3.92
2018-12-24T05:29:20.311Z,3.93
2018-12-24T05:31:49.659Z,3.95
2018-12-24T05:34:18.905Z,3.95
2018-12-24T05:36:48.187Z,3.92
2018-12-24T05:39:17.431Z,3.90
2018-12-24T05:41:46.710Z,3.87
2018-12-24T05:44:16.060Z,3.87
2018-12-24T05:46:45.294Z,3.86
2018-12-24T05:49:14.520Z,3.88
2018-12-24T05:51:43.990Z,3.84
2018-12-24T05:54:13.225Z,3.86
2018-12-24T05:56:42.585Z,3.89
2018-12-24T05:59:11.861Z,3.88
2018-12-24T06:01:41.163Z,3.87
2018-12-24T06:04:10.438Z,3.92
2018-12-24T06:06:39.692Z,3.88
2018-12-24T06:09:08.990Z,3.82
2018-12-24T06:11:38.225Z,3.81
2018-12-24T06:14:07.524Z,3.76
2018-12-24T06:16:36.781Z,3.72
2018-12-24T06:19:06.019Z,3.70
2018-12-24T06:21:35.268Z,3.67
2018-12-24T06:24:04.565Z,3.63
2018-12-24T06:26:33.901Z,3.61
2018-12-24T06:29:03.140Z,3.58
2018-12-24T06:31:32.483Z,3.58
2018-12-24T06:34:01.726Z,3.60
2018-12-24T06:36:31.088Z,3.61
2018-12-24T06:39:00.360Z,3.60
2018-12-24T06:41:29.652Z,3.59
2018-12-24T06:44:06.544Z,3.52
2018-12-24T06:46:28.216Z,3.53
2018-12-24T06:48:57.470Z,3.46
2018-12-24T06:51:26.758Z,3.47
2018-12-24T06:53:56.106Z,3.42
2018-12-24T06:56:25.352Z,3.31
2018-12-24T06:58:54.606Z,3.31
2018-12-24T07:01:23.864Z,3.28
2018-12-24T07:03:53.120Z,3.25
2018-12-24T07:06:22.368Z,3.20
2018-12-24T07:08:51.628Z,3.15
2018-12-24T07:11:20.846Z,3.06
2018-12-24T07:13:50.189Z,3.01
2018-12-24T07:16:19.511Z,2.94
2018-12-24T07:18:48.748Z,2.87
2018-12-24T07:21:18.008Z,2.81
2018-12-24T07:23:47.286Z,2.78
2018-12-24T07:26:16.520Z,2.76
2018-12-24T07:28:45.934Z,2.71
2018-12-24T07:31:15.176Z,2.76
2018-12-24T07:33:45.364Z,2.73
2018-12-24T07:36:14.596Z,2.68
2018-12-24T07:38:43.844Z,2.66
2018-12-24T07:41:13.064Z,2.63
2018-12-24T07:43:42.425Z,2.65
2018-12-24T07:46:11.684Z,2.66
2018-12-24T07:48:40.970Z,2.65
2018-12-24T07:51:10.310Z,2.62
2018-12-24T07:53:39.565Z,2.58
2018-12-24T07:56:08.902Z,2.50
2018-12-24T07:58:39.486Z,2.54
2018-12-24T08:01:07.524Z,2.55
2018-12-24T08:03:37.059Z,2.52
2018-12-24T08:06:06.355Z,2.51
2018-12-24T08:08:35.638Z,2.49
2018-12-24T08:11:04.904Z,2.45
2018-12-24T08:13:34.175Z,2.44
2018-12-24T08:16:03.484Z,2.41
2018-12-24T08:18:32.762Z,2.45
2018-12-24T08:21:02.026Z,2.46
2018-12-24T08:23:31.291Z,2.49
2018-12-24T08:26:00.627Z,2.45
2018-12-24T08:28:29.898Z,2.49
2018-12-24T08:30:59.136Z,2.53
2018-12-24T08:33:28.441Z,2.51
2018-12-24T08:35:57.687Z,2.52
2018-12-24T08:38:26.978Z,2.52
2018-12-24T08:40:56.338Z,2.53
2018-12-24T08:43:25.635Z,2.47
2018-12-24T08:45:54.881Z,2.50
2018-12-24T08:48:24.124Z,2.50
2018-12-24T08:50:53.538Z,2.50
2018-12-24T08:53:22.836Z,2.44
2018-12-24T08:55:52.302Z,2.47
2018-12-24T08:58:21.641Z,2.52
2018-12-24T09:00:50.916Z,2.58
2018-12-24T09:03:20.164Z,2.54
2018-12-24T09:05:49.464Z,2.55
2018-12-24T09:08:18.736Z,2.44
2018-12-24T09:10:48.016Z,2.44
2018-12-24T09:13:17.255Z,2.42
2018-12-24T09:15:46.578Z,2.48
2018-12-24T09:18:15.936Z,2.44
2018-12-24T09:20:52.617Z,2.47
2018-12-24T09:23:14.618Z,2.45
2018-12-24T09:25:43.858Z,2.49
2018-12-24T09:28:13.123Z,2.51
2018-12-24T09:30:48.501Z,2.45
2018-12-24T09:33:17.944Z,2.49
2018-12-24T09:35:47.174Z,2.55
2018-12-24T09:38:16.425Z,2.59
2018-12-24T09:40:45.688Z,2.63
2018-12-24T09:43:14.984Z,2.73
2018-12-24T09:45:44.208Z,2.64
2018-12-24T09:48:13.469Z,2.62
2018-12-24T09:50:42.719Z,2.64
2018-12-24T09:53:11.967Z,2.56
2018-12-24T09:55:41.229Z,2.57
2018-12-24T09:58:10.489Z,2.61
2018-12-24T10:00:39.737Z,2.63
2018-12-24T10:03:17.413Z,2.59
2018-12-24T10:05:46.685Z,2.52
2018-12-24T10:08:19.173Z,2.47
2018-12-24T10:10:48.490Z,2.37
2018-12-24T10:13:17.782Z,2.30
2018-12-24T10:15:47.032Z,2.29
2018-12-24T10:18:16.300Z,2.15
2018-12-24T10:20:45.575Z,2.14
2018-12-24T10:23:14.826Z,2.04
2018-12-24T10:25:44.329Z,2.03
2018-12-24T10:28:13.571Z,2.02
2018-12-24T10:30:42.858Z,2.02
2018-12-24T10:33:12.150Z,2.04
2018-12-24T10:35:41.411Z,2.08
2018-12-24T10:38:10.715Z,2.13
2018-12-24T10:41:02.047Z,2.18
2018-12-24T10:43:31.389Z,2.20
2018-12-24T10:46:00.706Z,2.22
2018-12-24T10:48:29.970Z,2.00
2018-12-24T10:50:59.286Z,1.97
2018-12-24T10:53:28.623Z,2.00
2018-12-24T10:55:57.882Z,2.04
2018-12-24T10:58:27.255Z,2.04
2018-12-24T11:00:57.049Z,2.07
2018-12-24T11:03:26.391Z,2.12
2018-12-24T11:05:55.672Z,2.17
2018-12-24T11:08:25.045Z,2.39
2018-12-24T11:10:54.470Z,2.51
2018-12-24T11:13:23.827Z,2.76
2018-12-24T11:15:53.156Z,2.80
2018-12-24T11:18:22.454Z,2.96
2018-12-24T11:20:51.863Z,2.99
2018-12-24T11:23:21.138Z,3.34
2018-12-24T11:25:50.536Z,4.09
2018-12-24T11:28:19.880Z,4.13
2018-12-24T11:30:49.236Z,3.99
2018-12-24T11:33:18.490Z,3.92
2018-12-24T11:35:47.814Z,3.81
2018-12-24T11:38:17.169Z,3.55
2018-12-24T11:40:46.641Z,3.33
2018-12-24T11:43:15.975Z,3.03
2018-12-24T11:45:45.212Z,3.60
2018-12-24T11:48:14.692Z,4.46
2018-12-24T11:50:43.943Z,5.72
2018-12-24T11:53:13.455Z,6.61
2018-12-24T11:55:42.975Z,7.14
2018-12-24T11:58:13.239Z,7.46
2018-12-24T12:00:41.941Z,7.07
2018-12-24T12:03:12.733Z,7.11
2018-12-24T12:05:40.511Z,7.05
2018-12-24T12:08:09.934Z,7.05
2018-12-24T12:10:39.305Z,7.54
2018-12-24T12:13:08.600Z,7.54
2018-12-24T12:15:42.614Z,7.67
2018-12-24T12:18:07.295Z,7.47
2018-12-24T12:20:36.692Z,7.47
2018-12-24T12:23:05.973Z,6.58
2018-12-24T12:25:35.243Z,6.20
2018-12-24T12:28:04.641Z,6.06
2018-12-24T12:30:33.924Z,6.21
2018-12-24T12:33:03.384Z,5.84
2018-12-24T12:35:32.661Z,6.25
2018-12-24T12:38:02.083Z,6.73
2018-12-24T12:40:31.446Z,6.23
2018-12-24T12:43:00.709Z,6.65
2018-12-24T12:45:30.029Z,7.59
2018-12-24T12:47:59.316Z,7.59
2018-12-24T12:50:28.838Z,7.94
2018-12-24T12:52:58.307Z,8.28
2018-12-24T12:55:27.638Z,8.40
2018-12-24T12:57:57.181Z,6.51
2018-12-24T13:00:26.518Z,6.51
2018-12-24T13:02:55.984Z,5.74
2018-12-24T13:05:25.375Z,5.06
2018-12-24T13:07:54.799Z,5.26
2018-12-24T13:10:24.177Z,5.38
2018-12-24T13:12:53.467Z,5.50
2018-12-24T13:15:22.807Z,5.12
2018-12-24T13:17:52.183Z,4.69
2018-12-24T13:20:25.141Z,4.90
2018-12-24T13:22:50.811Z,4.90
2018-12-24T13:25:20.141Z,4.60
2018-12-24T13:27:49.510Z,4.37
2018-12-24T13:30:18.890Z,4.30
2018-12-24T13:32:48.288Z,3.84
2018-12-24T13:35:17.585Z,3.77
2018-12-24T13:37:46.903Z,3.38
2018-12-24T13:40:16.248Z,3.14
2018-12-24T13:42:45.703Z,3.11
2018-12-24T13:45:14.964Z,2.96
2018-12-24T13:47:44.422Z,3.01
2018-12-24T13:50:13.673Z,2.88
2018-12-24T13:52:43.016Z,2.75
2018-12-24T13:55:12.397Z,2.69
2018-12-24T13:57:41.707Z,2.77
2018-12-24T14:00:10.958Z,2.78
2018-12-24T14:02:40.217Z,2.80
2018-12-24T14:05:09.510Z,2.77
2018-12-24T14:07:38.862Z,2.67
2018-12-24T14:10:08.314Z,2.67
2018-12-24T14:12:37.933Z,2.60
2018-12-24T14:15:07.614Z,2.68
2018-12-24T14:17:37.012Z,2.71
2018-12-24T14:20:06.961Z,2.68
2018-12-24T14:22:36.217Z,2.70
2018-12-24T14:25:05.631Z,2.68
2018-12-24T14:27:34.961Z,2.65
2018-12-24T14:30:04.869Z,2.66
2018-12-24T14:32:34.138Z,2.60
2018-12-24T14:35:03.447Z,2.55
2018-12-24T14:37:32.787Z,2.51
2018-12-24T14:40:02.165Z,2.45
2018-12-24T14:42:32.159Z,2.49
2018-12-24T14:45:01.474Z,2.46
2018-12-24T14:47:31.227Z,2.45
2018-12-24T14:50:00.492Z,2.46
2018-12-24T14:52:29.761Z,2.47
2018-12-24T14:54:59.108Z,2.44
2018-12-24T14:57:28.398Z,2.33
2018-12-24T14:59:57.723Z,2.31
2018-12-24T15:02:27.142Z,2.30
2018-12-24T15:04:56.544Z,2.28
2018-12-24T15:07:25.800Z,2.28
2018-12-24T15:09:55.123Z,2.22
2018-12-24T15:12:24.519Z,2.18
2018-12-24T15:14:53.768Z,2.17
2018-12-24T15:17:23.045Z,2.16
2018-12-24T15:19:52.399Z,2.06
2018-12-24T15:22:21.632Z,2.01
2018-12-24T15:24:50.899Z,1.99
2018-12-24T15:27:20.178Z,1.96
2018-12-24T15:29:49.493Z,1.92
2018-12-24T15:32:18.805Z,1.95
2018-12-24T15:34:48.276Z,1.96
2018-12-24T15:37:17.531Z,1.91
2018-12-24T15:39:46.875Z,1.92
2018-12-24T15:42:16.077Z,1.95
2018-12-24T15:44:45.433Z,1.94
2018-12-24T15:47:14.688Z,1.98
2018-12-24T15:49:43.999Z,1.99
2018-12-24T15:52:13.238Z,2.03
2018-12-24T15:54:42.545Z,2.00
2018-12-24T15:57:11.840Z,1.99
2018-12-24T15:59:41.106Z,2.03
2018-12-24T16:02:10.372Z,2.03
2018-12-24T16:04:39.728Z,2.02
2018-12-24T16:07:09.052Z,2.02
2018-12-24T16:09:38.269Z,1.94
2018-12-24T16:12:07.663Z,1.95
2018-12-24T16:14:36.921Z,1.93
2018-12-24T16:17:06.179Z,1.97
2018-12-24T16:19:35.567Z,1.98
2018-12-24T16:22:04.921Z,1.93
2018-12-24T16:24:34.183Z,1.94
2018-12-24T16:27:03.419Z,1.98
2018-12-24T16:29:32.675Z,1.96
2018-12-24T16:32:02.025Z,1.94
2018-12-24T16:34:31.449Z,1.95
2018-12-24T16:37:00.689Z,1.97
2018-12-24T16:39:30.039Z,2.00
2018-12-24T16:41:59.318Z,2.01
2018-12-24T16:44:28.642Z,2.05
2018-12-24T16:46:59.540Z,2.10
2018-12-24T16:49:27.238Z,2.05
2018-12-24T16:51:56.568Z,2.05
2018-12-24T16:54:25.837Z,2.08
2018-12-24T16:56:55.086Z,2.01
2018-12-24T16:59:24.350Z,1.99
2018-12-24T17:01:53.634Z,1.97
2018-12-24T17:04:22.921Z,1.91
2018-12-24T17:06:52.390Z,1.88
2018-12-24T17:09:21.934Z,1.88
2018-12-24T17:11:51.390Z,1.84
2018-12-24T17:14:20.842Z,1.88
2018-12-24T17:16:50.278Z,1.88
2018-12-24T17:19:19.778Z,1.92
2018-12-24T17:21:49.248Z,1.92
2018-12-24T17:24:18.599Z,1.95
2018-12-24T17:26:47.839Z,1.92
2018-12-24T17:29:17.188Z,1.90
2018-12-24T17:31:46.504Z,1.88
2018-12-24T17:34:15.744Z,1.92
2018-12-24T17:36:45.104Z,1.90
2018-12-24T17:39:14.399Z,1.92
2018-12-24T17:41:43.706Z,1.91
2018-12-24T17:44:12.983Z,1.91
2018-12-24T17:46:42.284Z,1.93
2018-12-24T17:49:11.542Z,1.94
2018-12-24T17:51:40.906Z,1.94
2018-12-24T17:54:10.137Z,1.98
2018-12-24T17:56:39.384Z,1.92
2018-12-24T17:59:08.681Z,1.92
2018-12-24T18:01:37.987Z,1.97
2018-12-24T18:04:09.086Z,2.00
2018-12-24T18:06:36.475Z,1.97
2018-12-24T18:09:08.107Z,2.04
2018-12-24T18:11:37.405Z,2.00
2018-12-24T18:14:06.757Z,2.05
2018-12-24T18:16:36.049Z,2.04
2018-12-24T18:19:05.286Z,2.08
2018-12-24T18:21:34.591Z,2.03
2018-12-24T18:24:03.961Z,2.07
2018-12-24T18:26:33.240Z,2.07
2018-12-24T18:29:02.507Z,2.20
2018-12-24T18:31:31.743Z,2.22
2018-12-24T18:34:00.974Z,2.27
2018-12-24T18:36:30.255Z,2.28
2018-12-24T18:38:59.474Z,2.31
2018-12-24T18:41:28.715Z,2.38
2018-12-24T18:43:57.960Z,2.49
2018-12-24T18:46:27.199Z,2.54
2018-12-24T18:48:56.574Z,2.62
2018-12-24T18:51:25.840Z,2.71
2018-12-24T18:53:55.141Z,2.79
2018-12-24T18:56:24.431Z,2.77
2018-12-24T18:58:53.720Z,2.85
2018-12-24T19:01:22.961Z,2.88
2018-12-24T19:03:53.010Z,2.93
2018-12-24T19:06:22.276Z,3.00
2018-12-24T19:08:51.575Z,3.09
2018-12-24T19:11:20.908Z,3.08
2018-12-24T19:13:50.183Z,3.13
2018-12-24T19:16:19.498Z,3.19
2018-12-24T19:18:48.757Z,3.21
2018-12-24T19:21:18.072Z,3.28
2018-12-24T19:23:47.344Z,3.29
2018-12-24T19:26:16.710Z,3.29
2018-12-24T19:28:45.956Z,3.26
2018-12-24T19:31:15.234Z,3.30
2018-12-24T19:33:44.503Z,3.32
2018-12-24T19:36:13.761Z,3.38
2018-12-24T19:38:43.051Z,3.37
2018-12-24T19:41:12.385Z,3.38
2018-12-24T19:43:41.655Z,3.35
2018-12-24T19:46:10.933Z,3.35
2018-12-24T19:48:40.179Z,3.40
2018-12-24T19:51:09.426Z,3.40
2018-12-24T19:53:38.695Z,3.35
2018-12-24T19:56:07.944Z,3.32
2018-12-24T19:58:37.243Z,3.34
2018-12-24T20:01:06.484Z,3.34
2018-12-24T20:03:35.739Z,3.31
2018-12-24T20:06:05.139Z,3.29
2018-12-24T20:08:34.397Z,3.26
2018-12-24T20:11:03.673Z,3.31
2018-12-24T20:13:32.926Z,3.28
2018-12-24T20:16:02.173Z,3.29
2018-12-24T20:18:31.427Z,3.32
2018-12-24T20:21:00.681Z,3.29
2018-12-24T20:23:30.017Z,3.34
2018-12-24T20:25:59.293Z,3.39
2018-12-24T20:28:28.586Z,3.39
2018-12-24T20:30:57.847Z,3.44
2018-12-24T20:33:27.142Z,3.45
2018-12-24T20:35:56.407Z,3.45
2018-12-24T20:38:25.712Z,3.49
2018-12-24T20:40:55.007Z,3.45
2018-12-24T20:43:24.269Z,3.43
2018-12-24T20:45:53.609Z,3.42
2018-12-24T20:48:22.895Z,3.43
2018-12-24T20:50:52.182Z,3.47
2018-12-24T20:53:21.608Z,3.48
2018-12-24T20:55:50.859Z,3.46
2018-12-24T20:58:20.133Z,3.48
2018-12-24T21:00:49.435Z,3.44
2018-12-24T21:03:18.717Z,3.46
2018-12-24T21:05:48.038Z,3.45
2018-12-24T21:08:17.275Z,3.47
2018-12-24T21:10:46.549Z,3.46
2018-12-24T21:13:15.825Z,3.46
2018-12-24T21:15:45.111Z,3.53
2018-12-24T21:18:15.150Z,3.50
2018-12-24T21:20:43.721Z,3.53
2018-12-24T21:23:13.045Z,3.56
2018-12-24T21:25:42.281Z,3.49
2018-12-24T21:28:11.647Z,3.58
2018-12-24T21:30:40.935Z,3.60
2018-12-24T21:33:10.347Z,3.63
2018-12-24T21:35:39.599Z,3.60
2018-12-24T21:38:08.873Z,3.62
2018-12-24T21:40:38.222Z,3.59
2018-12-24T21:43:07.466Z,3.57
2018-12-24T21:45:36.766Z,3.56
2018-12-24T21:48:06.013Z,3.56
2018-12-24T21:50:35.274Z,3.59
2018-12-24T21:53:04.638Z,3.58
2018-12-24T21:55:33.987Z,3.57
2018-12-24T21:58:03.533Z,3.59
2018-12-24T22:00:32.800Z,3.60
2018-12-24T22:03:02.057Z,3.58
2018-12-24T22:05:31.294Z,3.52
2018-12-24T22:08:00.663Z,3.55
2018-12-24T22:10:29.938Z,3.57
2018-12-24T22:12:59.183Z,3.58
2018-12-24T22:15:28.407Z,3.60
2018-12-24T22:17:57.673Z,3.57
2018-12-24T22:20:27.165Z,3.59
2018-12-24T22:22:56.436Z,3.56
2018-12-24T22:25:25.693Z,3.54
2018-12-24T22:27:54.957Z,3.51
2018-12-24T22:30:24.241Z,3.52
2018-12-24T22:32:53.505Z,3.46
2018-12-24T22:35:22.763Z,3.44
2018-12-24T22:37:52.049Z,3.44
2018-12-24T22:40:21.321Z,3.43
2018-12-24T22:42:50.637Z,3.38
2018-12-24T22:45:19.923Z,3.31
2018-12-24T22:47:49.182Z,3.33
2018-12-24T22:50:18.452Z,3.32
2018-12-24T22:52:47.740Z,3.27
2018-12-24T22:55:17.029Z,3.23
2018-12-24T22:57:44.958Z,3.22
2018-12-24T23:00:15.717Z,3.20
2018-12-24T23:02:45.060Z,3.17
2018-12-24T23:05:14.369Z,3.18
2018-12-24T23:07:43.714Z,3.23
2018-12-24T23:10:13.072Z,3.30
2018-12-24T23:12:42.325Z,3.27
2018-12-24T23:15:11.588Z,3.29
2018-12-24T23:17:40.877Z,3.26
2018-12-24T23:20:10.163Z,3.33
2018-12-24T23:22:39.409Z,3.32
2018-12-24T23:25:08.662Z,3.31
2018-12-24T23:27:37.925Z,3.34
2018-12-24T23:30:07.888Z,3.31
2018-12-24T23:32:37.127Z,3.32
2018-12-24T23:35:06.500Z,3.27
2018-12-24T23:37:35.796Z,3.23
2018-12-24T23:40:05.509Z,3.12
2018-12-24T23:42:34.861Z,3.17
2018-12-24T23:45:04.566Z,3.12
2018-12-24T23:47:36.771Z,3.06
2018-12-24T23:50:06.193Z,3.00
2018-12-24T23:52:35.502Z,3.01
2018-12-24T23:55:04.724Z,3.08
2018-12-24T23:57:33.992Z,3.08
